sensor_id;sensor_type;location;lat;lon;timestamp;P1;durP1;ratioP1;P2;durP2;ratioP2
71692;SDS011;59524;43.000;-0.216;2022-07-06T00:01:37;10.80;;;5.45;;
71692;SDS011;59524;43.000;-0.216;2022-07-06T00:04:03;5.85;;;5.20;;
71692;SDS011;59524;43.000;-0.216;2022-07-06T00:06:30;7.03;;;5.38;;
71692;SDS011;59524;43.000;-0.216;2022-07-06T00:08:57;7.95;;;5.30;;
71692;SDS011;59524;43.000;-0.216;2022-07-06T00:11:24;7.00;;;5.35;;
71692;SDS011;59524;43.000;-0.216;2022-07-06T00:13:52;7.00;;;5.10;;
71692;SDS011;59524;43.000;-0.216;2022-07-06T00:16:20;6.97;;;5.00;;
71692;SDS011;59524;43.000;-0.216;2022-07-06T00:18:47;7.18;;;5.05;;
71692;SDS011;59524;43.000;-0.216;2022-07-06T00:21:14;6.43;;;5.15;;
71692;SDS011;59524;43.000;-0.216;2022-07-06T00:23:41;6.22;;;4.97;;
71692;SDS011;59524;43.000;-0.216;2022-07-06T00:26:08;5.40;;;5.00;;
71692;SDS011;59524;43.000;-0.216;2022-07-06T00:28:35;7.40;;;5.10;;
71692;SDS011;59524;43.000;-0.216;2022-07-06T00:31:02;6.53;;;4.80;;
71692;SDS011;59524;43.000;-0.216;2022-07-06T00:33:29;6.97;;;5.60;;
71692;SDS011;59524;43.000;-0.216;2022-07-06T00:35:56;7.05;;;5.22;;
71692;SDS011;59524;43.000;-0.216;2022-07-06T00:38:23;5.57;;;4.82;;
71692;SDS011;59524;43.000;-0.216;2022-07-06T00:40:50;9.98;;;5.45;;
71692;SDS011;59524;43.000;-0.216;2022-07-06T00:43:17;6.80;;;5.43;;
71692;SDS011;59524;43.000;-0.216;2022-07-06T00:45:43;6.55;;;5.38;;
71692;SDS011;59524;43.000;-0.216;2022-07-06T00:48:10;9.63;;;5.28;;
71692;SDS011;59524;43.000;-0.216;2022-07-06T00:50:38;5.75;;;5.20;;
71692;SDS011;59524;43.000;-0.216;2022-07-06T00:53:05;8.13;;;5.30;;
71692;SDS011;59524;43.000;-0.216;2022-07-06T00:55:34;10.20;;;5.45;;
71692;SDS011;59524;43.000;-0.216;2022-07-06T00:58:02;10.13;;;5.32;;
71692;SDS011;59524;43.000;-0.216;2022-07-06T01:00:29;7.28;;;4.88;;
71692;SDS011;59524;43.000;-0.216;2022-07-06T01:02:56;8.43;;;4.85;;
71692;SDS011;59524;43.000;-0.216;2022-07-06T01:05:23;5.75;;;5.05;;
71692;SDS011;59524;43.000;-0.216;2022-07-06T01:07:50;6.50;;;5.20;;
71692;SDS011;59524;43.000;-0.216;2022-07-06T01:10:18;5.90;;;5.30;;
71692;SDS011;59524;43.000;-0.216;2022-07-06T01:12:45;6.85;;;5.25;;
71692;SDS011;59524;43.000;-0.216;2022-07-06T01:15:15;10.18;;;5.20;;
71692;SDS011;59524;43.000;-0.216;2022-07-06T01:17:42;7.03;;;4.97;;
71692;SDS011;59524;43.000;-0.216;2022-07-06T01:20:28;7.60;;;5.45;;
71692;SDS011;59524;43.000;-0.216;2022-07-06T01:22:55;7.78;;;5.07;;
71692;SDS011;59524;43.000;-0.216;2022-07-06T01:25:22;6.80;;;5.18;;
71692;SDS011;59524;43.000;-0.216;2022-07-06T01:27:49;9.90;;;5.15;;
71692;SDS011;59524;43.000;-0.216;2022-07-06T01:30:17;8.02;;;5.22;;
71692;SDS011;59524;43.000;-0.216;2022-07-06T01:32:44;6.50;;;5.47;;
71692;SDS011;59524;43.000;-0.216;2022-07-06T01:35:12;5.78;;;5.15;;
71692;SDS011;59524;43.000;-0.216;2022-07-06T01:37:39;7.47;;;5.60;;
71692;SDS011;59524;43.000;-0.216;2022-07-06T01:40:06;9.82;;;5.57;;
71692;SDS011;59524;43.000;-0.216;2022-07-06T01:42:34;7.30;;;6.25;;
71692;SDS011;59524;43.000;-0.216;2022-07-06T01:45:00;7.45;;;5.40;;
71692;SDS011;59524;43.000;-0.216;2022-07-06T01:47:27;10.55;;;6.53;;
71692;SDS011;59524;43.000;-0.216;2022-07-06T01:49:57;10.13;;;5.63;;
71692;SDS011;59524;43.000;-0.216;2022-07-06T01:52:25;8.45;;;6.07;;
71692;SDS011;59524;43.000;-0.216;2022-07-06T01:54:52;6.20;;;5.53;;
71692;SDS011;59524;43.000;-0.216;2022-07-06T01:57:18;6.85;;;5.57;;
71692;SDS011;59524;43.000;-0.216;2022-07-06T01:59:45;8.43;;;5.60;;
71692;SDS011;59524;43.000;-0.216;2022-07-06T02:02:12;8.13;;;5.50;;
71692;SDS011;59524;43.000;-0.216;2022-07-06T02:04:40;6.75;;;5.60;;
71692;SDS011;59524;43.000;-0.216;2022-07-06T02:07:07;8.02;;;6.15;;
71692;SDS011;59524;43.000;-0.216;2022-07-06T02:09:33;7.45;;;5.70;;
71692;SDS011;59524;43.000;-0.216;2022-07-06T02:12:00;10.50;;;5.90;;
71692;SDS011;59524;43.000;-0.216;2022-07-06T02:14:26;7.30;;;6.03;;
71692;SDS011;59524;43.000;-0.216;2022-07-06T02:16:53;10.15;;;6.45;;
71692;SDS011;59524;43.000;-0.216;2022-07-06T02:19:20;8.15;;;6.22;;
71692;SDS011;59524;43.000;-0.216;2022-07-06T02:21:47;9.85;;;6.90;;
71692;SDS011;59524;43.000;-0.216;2022-07-06T02:24:14;8.13;;;6.72;;
71692;SDS011;59524;43.000;-0.216;2022-07-06T02:26:41;6.47;;;5.88;;
71692;SDS011;59524;43.000;-0.216;2022-07-06T02:29:08;8.27;;;6.10;;
71692;SDS011;59524;43.000;-0.216;2022-07-06T02:31:35;9.95;;;7.00;;
71692;SDS011;59524;43.000;-0.216;2022-07-06T02:34:02;11.20;;;8.02;;
71692;SDS011;59524;43.000;-0.216;2022-07-06T02:36:29;8.07;;;7.25;;
71692;SDS011;59524;43.000;-0.216;2022-07-06T02:38:56;9.05;;;7.22;;
71692;SDS011;59524;43.000;-0.216;2022-07-06T02:41:23;9.02;;;6.80;;
71692;SDS011;59524;43.000;-0.216;2022-07-06T02:43:50;9.07;;;6.07;;
71692;SDS011;59524;43.000;-0.216;2022-07-06T02:46:17;7.75;;;6.07;;
71692;SDS011;59524;43.000;-0.216;2022-07-06T02:48:44;7.05;;;5.70;;
71692;SDS011;59524;43.000;-0.216;2022-07-06T02:51:11;9.20;;;5.90;;
71692;SDS011;59524;43.000;-0.216;2022-07-06T02:53:39;6.18;;;5.50;;
71692;SDS011;59524;43.000;-0.216;2022-07-06T02:56:06;6.80;;;4.75;;
71692;SDS011;59524;43.000;-0.216;2022-07-06T02:58:32;6.15;;;4.65;;
71692;SDS011;59524;43.000;-0.216;2022-07-06T03:00:59;10.02;;;4.90;;
71692;SDS011;59524;43.000;-0.216;2022-07-06T03:03:27;5.38;;;4.88;;
71692;SDS011;59524;43.000;-0.216;2022-07-06T03:05:54;7.60;;;5.63;;
71692;SDS011;59524;43.000;-0.216;2022-07-06T03:08:22;8.73;;;5.10;;
71692;SDS011;59524;43.000;-0.216;2022-07-06T03:10:48;8.70;;;4.80;;
71692;SDS011;59524;43.000;-0.216;2022-07-06T03:13:15;5.43;;;4.80;;
71692;SDS011;59524;43.000;-0.216;2022-07-06T03:15:43;5.85;;;4.93;;
71692;SDS011;59524;43.000;-0.216;2022-07-06T03:18:10;5.78;;;4.22;;
71692;SDS011;59524;43.000;-0.216;2022-07-06T03:20:37;6.38;;;4.47;;
71692;SDS011;59524;43.000;-0.216;2022-07-06T03:23:04;6.80;;;4.32;;
71692;SDS011;59524;43.000;-0.216;2022-07-06T03:25:30;6.05;;;4.50;;
71692;SDS011;59524;43.000;-0.216;2022-07-06T03:27:58;7.15;;;4.32;;
71692;SDS011;59524;43.000;-0.216;2022-07-06T03:30:25;6.93;;;4.32;;
71692;SDS011;59524;43.000;-0.216;2022-07-06T03:32:51;6.22;;;4.50;;
71692;SDS011;59524;43.000;-0.216;2022-07-06T03:35:18;6.70;;;4.57;;
71692;SDS011;59524;43.000;-0.216;2022-07-06T03:37:45;7.15;;;5.20;;
71692;SDS011;59524;43.000;-0.216;2022-07-06T03:40:12;6.00;;;4.72;;
71692;SDS011;59524;43.000;-0.216;2022-07-06T03:42:40;5.07;;;4.00;;
71692;SDS011;59524;43.000;-0.216;2022-07-06T03:45:07;7.07;;;4.53;;
71692;SDS011;59524;43.000;-0.216;2022-07-06T03:47:34;5.00;;;4.50;;
71692;SDS011;59524;43.000;-0.216;2022-07-06T03:50:01;7.10;;;4.13;;
71692;SDS011;59524;43.000;-0.216;2022-07-06T03:52:29;8.27;;;4.63;;
71692;SDS011;59524;43.000;-0.216;2022-07-06T03:54:56;10.93;;;8.00;;
71692;SDS011;59524;43.000;-0.216;2022-07-06T03:57:23;14.68;;;6.50;;
71692;SDS011;59524;43.000;-0.216;2022-07-06T03:59:51;12.02;;;7.70;;
71692;SDS011;59524;43.000;-0.216;2022-07-06T04:02:18;11.85;;;5.53;;
71692;SDS011;59524;43.000;-0.216;2022-07-06T04:04:45;7.38;;;5.38;;
71692;SDS011;59524;43.000;-0.216;2022-07-06T04:07:12;9.40;;;5.03;;
71692;SDS011;59524;43.000;-0.216;2022-07-06T04:09:39;11.00;;;5.05;;
71692;SDS011;59524;43.000;-0.216;2022-07-06T04:12:06;5.00;;;4.50;;
71692;SDS011;59524;43.000;-0.216;2022-07-06T04:14:32;5.90;;;4.88;;
71692;SDS011;59524;43.000;-0.216;2022-07-06T04:17:00;6.65;;;4.13;;
71692;SDS011;59524;43.000;-0.216;2022-07-06T04:22:12;5.43;;;4.43;;
71692;SDS011;59524;43.000;-0.216;2022-07-06T04:24:39;8.20;;;5.38;;
71692;SDS011;59524;43.000;-0.216;2022-07-06T04:27:06;4.43;;;4.00;;
71692;SDS011;59524;43.000;-0.216;2022-07-06T04:29:33;5.25;;;4.10;;
71692;SDS011;59524;43.000;-0.216;2022-07-06T04:31:59;4.72;;;4.22;;
71692;SDS011;59524;43.000;-0.216;2022-07-06T04:34:26;4.80;;;4.35;;
71692;SDS011;59524;43.000;-0.216;2022-07-06T04:36:52;5.05;;;4.63;;
71692;SDS011;59524;43.000;-0.216;2022-07-06T04:39:19;5.10;;;3.95;;
71692;SDS011;59524;43.000;-0.216;2022-07-06T04:41:45;6.75;;;4.10;;
71692;SDS011;59524;43.000;-0.216;2022-07-06T04:44:12;4.05;;;3.72;;
71692;SDS011;59524;43.000;-0.216;2022-07-06T04:46:39;5.80;;;3.85;;
71692;SDS011;59524;43.000;-0.216;2022-07-06T04:49:06;9.55;;;6.78;;
71692;SDS011;59524;43.000;-0.216;2022-07-06T04:51:33;4.25;;;3.67;;
71692;SDS011;59524;43.000;-0.216;2022-07-06T04:53:59;6.47;;;4.43;;
71692;SDS011;59524;43.000;-0.216;2022-07-06T04:56:26;14.32;;;9.25;;
71692;SDS011;59524;43.000;-0.216;2022-07-06T04:58:53;6.40;;;4.72;;
71692;SDS011;59524;43.000;-0.216;2022-07-06T05:01:19;7.95;;;4.18;;
71692;SDS011;59524;43.000;-0.216;2022-07-06T05:03:46;7.30;;;4.45;;
71692;SDS011;59524;43.000;-0.216;2022-07-06T05:06:13;7.15;;;4.10;;
71692;SDS011;59524;43.000;-0.216;2022-07-06T05:08:40;11.95;;;4.28;;
71692;SDS011;59524;43.000;-0.216;2022-07-06T05:11:08;3.90;;;3.60;;
71692;SDS011;59524;43.000;-0.216;2022-07-06T05:25:48;10.25;;;5.43;;
71692;SDS011;59524;43.000;-0.216;2022-07-06T05:28:15;10.05;;;6.28;;
71692;SDS011;59524;43.000;-0.216;2022-07-06T05:30:42;11.20;;;5.55;;
71692;SDS011;59524;43.000;-0.216;2022-07-06T05:33:09;20.35;;;6.70;;
71692;SDS011;59524;43.000;-0.216;2022-07-06T05:35:35;8.68;;;6.07;;
71692;SDS011;59524;43.000;-0.216;2022-07-06T05:38:02;11.60;;;6.10;;
71692;SDS011;59524;43.000;-0.216;2022-07-06T05:40:29;11.30;;;6.68;;
71692;SDS011;59524;43.000;-0.216;2022-07-06T05:42:56;18.10;;;6.75;;
71692;SDS011;59524;43.000;-0.216;2022-07-06T05:45:23;9.73;;;6.50;;
71692;SDS011;59524;43.000;-0.216;2022-07-06T05:47:50;7.65;;;5.65;;
71692;SDS011;59524;43.000;-0.216;2022-07-06T05:50:36;12.13;;;5.72;;
71692;SDS011;59524;43.000;-0.216;2022-07-06T05:53:03;10.05;;;6.47;;
71692;SDS011;59524;43.000;-0.216;2022-07-06T05:55:30;15.68;;;6.57;;
71692;SDS011;59524;43.000;-0.216;2022-07-06T05:57:57;11.73;;;5.80;;
71692;SDS011;59524;43.000;-0.216;2022-07-06T06:00:24;8.70;;;5.40;;
71692;SDS011;59524;43.000;-0.216;2022-07-06T06:02:51;7.88;;;5.32;;
71692;SDS011;59524;43.000;-0.216;2022-07-06T06:05:19;8.02;;;5.18;;
71692;SDS011;59524;43.000;-0.216;2022-07-06T06:07:46;7.20;;;4.68;;
71692;SDS011;59524;43.000;-0.216;2022-07-06T06:10:14;10.32;;;5.55;;
71692;SDS011;59524;43.000;-0.216;2022-07-06T06:12:41;6.40;;;4.70;;
71692;SDS011;59524;43.000;-0.216;2022-07-06T06:15:08;8.35;;;5.35;;
71692;SDS011;59524;43.000;-0.216;2022-07-06T06:17:35;9.00;;;5.75;;
71692;SDS011;59524;43.000;-0.216;2022-07-06T06:20:03;10.30;;;5.30;;
71692;SDS011;59524;43.000;-0.216;2022-07-06T06:22:30;9.88;;;5.05;;
71692;SDS011;59524;43.000;-0.216;2022-07-06T06:24:56;9.23;;;4.70;;
71692;SDS011;59524;43.000;-0.216;2022-07-06T06:27:24;6.43;;;4.57;;
71692;SDS011;59524;43.000;-0.216;2022-07-06T06:29:51;10.05;;;5.60;;
71692;SDS011;59524;43.000;-0.216;2022-07-06T06:32:17;10.00;;;5.45;;
71692;SDS011;59524;43.000;-0.216;2022-07-06T06:34:44;7.72;;;4.88;;
71692;SDS011;59524;43.000;-0.216;2022-07-06T06:37:11;8.63;;;5.90;;
71692;SDS011;59524;43.000;-0.216;2022-07-06T06:39:38;8.57;;;5.45;;
71692;SDS011;59524;43.000;-0.216;2022-07-06T06:42:05;10.45;;;6.25;;
71692;SDS011;59524;43.000;-0.216;2022-07-06T06:44:31;8.77;;;6.32;;
71692;SDS011;59524;43.000;-0.216;2022-07-06T06:46:58;7.40;;;6.20;;
71692;SDS011;59524;43.000;-0.216;2022-07-06T06:49:24;8.68;;;5.60;;
71692;SDS011;59524;43.000;-0.216;2022-07-06T06:51:51;8.43;;;5.68;;
71692;SDS011;59524;43.000;-0.216;2022-07-06T06:54:17;10.10;;;5.97;;
71692;SDS011;59524;43.000;-0.216;2022-07-06T06:56:44;9.02;;;6.25;;
71692;SDS011;59524;43.000;-0.216;2022-07-06T06:59:10;10.05;;;5.90;;
71692;SDS011;59524;43.000;-0.216;2022-07-06T07:01:37;8.10;;;5.88;;
71692;SDS011;59524;43.000;-0.216;2022-07-06T07:04:04;22.17;;;6.78;;
71692;SDS011;59524;43.000;-0.216;2022-07-06T07:06:32;8.85;;;6.28;;
71692;SDS011;59524;43.000;-0.216;2022-07-06T07:08:58;16.42;;;6.55;;
71692;SDS011;59524;43.000;-0.216;2022-07-06T07:11:25;10.30;;;6.57;;
71692;SDS011;59524;43.000;-0.216;2022-07-06T07:13:53;12.00;;;6.55;;
71692;SDS011;59524;43.000;-0.216;2022-07-06T07:16:19;10.30;;;6.15;;
71692;SDS011;59524;43.000;-0.216;2022-07-06T07:18:46;12.90;;;6.18;;
71692;SDS011;59524;43.000;-0.216;2022-07-06T07:21:12;9.27;;;6.50;;
71692;SDS011;59524;43.000;-0.216;2022-07-06T07:23:40;9.07;;;6.07;;
71692;SDS011;59524;43.000;-0.216;2022-07-06T07:26:07;16.33;;;9.90;;
71692;SDS011;59524;43.000;-0.216;2022-07-06T07:28:33;8.57;;;7.30;;
71692;SDS011;59524;43.000;-0.216;2022-07-06T07:31:00;10.23;;;6.05;;
71692;SDS011;59524;43.000;-0.216;2022-07-06T07:33:26;13.90;;;6.65;;
71692;SDS011;59524;43.000;-0.216;2022-07-06T07:35:54;44.80;;;8.27;;
71692;SDS011;59524;43.000;-0.216;2022-07-06T07:38:20;9.45;;;6.05;;
71692;SDS011;59524;43.000;-0.216;2022-07-06T07:40:47;11.60;;;6.95;;
71692;SDS011;59524;43.000;-0.216;2022-07-06T07:43:14;11.95;;;6.63;;
71692;SDS011;59524;43.000;-0.216;2022-07-06T07:45:40;7.45;;;5.88;;
71692;SDS011;59524;43.000;-0.216;2022-07-06T07:48:07;10.45;;;6.40;;
71692;SDS011;59524;43.000;-0.216;2022-07-06T07:50:33;14.07;;;10.70;;
71692;SDS011;59524;43.000;-0.216;2022-07-06T07:53:00;12.90;;;6.57;;
71692;SDS011;59524;43.000;-0.216;2022-07-06T07:55:27;8.70;;;6.10;;
71692;SDS011;59524;43.000;-0.216;2022-07-06T07:57:54;11.27;;;6.30;;
71692;SDS011;59524;43.000;-0.216;2022-07-06T08:00:21;10.05;;;6.38;;
71692;SDS011;59524;43.000;-0.216;2022-07-06T08:02:48;11.25;;;6.93;;
71692;SDS011;59524;43.000;-0.216;2022-07-06T08:05:14;10.15;;;7.30;;
71692;SDS011;59524;43.000;-0.216;2022-07-06T08:07:41;8.85;;;7.13;;
71692;SDS011;59524;43.000;-0.216;2022-07-06T08:10:08;8.50;;;5.93;;
71692;SDS011;59524;43.000;-0.216;2022-07-06T08:12:36;12.55;;;7.20;;
71692;SDS011;59524;43.000;-0.216;2022-07-06T08:15:03;8.55;;;7.40;;
71692;SDS011;59524;43.000;-0.216;2022-07-06T08:17:29;9.65;;;7.50;;
71692;SDS011;59524;43.000;-0.216;2022-07-06T08:19:57;10.23;;;7.38;;
71692;SDS011;59524;43.000;-0.216;2022-07-06T08:22:24;12.15;;;7.70;;
71692;SDS011;59524;43.000;-0.216;2022-07-06T08:24:51;9.15;;;7.22;;
71692;SDS011;59524;43.000;-0.216;2022-07-06T08:27:18;10.60;;;7.63;;
71692;SDS011;59524;43.000;-0.216;2022-07-06T08:29:45;11.98;;;7.07;;
71692;SDS011;59524;43.000;-0.216;2022-07-06T08:32:11;12.35;;;6.88;;
71692;SDS011;59524;43.000;-0.216;2022-07-06T08:34:38;8.25;;;7.35;;
71692;SDS011;59524;43.000;-0.216;2022-07-06T08:37:05;9.82;;;6.80;;
71692;SDS011;59524;43.000;-0.216;2022-07-06T08:39:32;9.18;;;7.07;;
71692;SDS011;59524;43.000;-0.216;2022-07-06T08:41:59;10.13;;;6.90;;
71692;SDS011;59524;43.000;-0.216;2022-07-06T08:44:27;10.30;;;7.55;;
71692;SDS011;59524;43.000;-0.216;2022-07-06T08:46:58;6.85;;;6.10;;
71692;SDS011;59524;43.000;-0.216;2022-07-06T08:49:26;6.43;;;5.40;;
71692;SDS011;59524;43.000;-0.216;2022-07-06T08:51:53;7.43;;;5.70;;
71692;SDS011;59524;43.000;-0.216;2022-07-06T08:54:20;10.52;;;6.40;;
71692;SDS011;59524;43.000;-0.216;2022-07-06T08:56:48;8.40;;;4.80;;
71692;SDS011;59524;43.000;-0.216;2022-07-06T08:59:15;4.68;;;4.13;;
71692;SDS011;59524;43.000;-0.216;2022-07-06T09:01:42;5.35;;;4.60;;
71692;SDS011;59524;43.000;-0.216;2022-07-06T09:04:10;4.93;;;4.43;;
71692;SDS011;59524;43.000;-0.216;2022-07-06T09:06:38;4.85;;;3.95;;
71692;SDS011;59524;43.000;-0.216;2022-07-06T09:09:08;10.02;;;4.10;;
71692;SDS011;59524;43.000;-0.216;2022-07-06T09:14:39;7.13;;;3.65;;
71692;SDS011;59524;43.000;-0.216;2022-07-06T09:17:06;4.15;;;3.55;;
71692;SDS011;59524;43.000;-0.216;2022-07-06T09:19:33;4.45;;;4.05;;
71692;SDS011;59524;43.000;-0.216;2022-07-06T09:22:00;5.60;;;3.42;;
71692;SDS011;59524;43.000;-0.216;2022-07-06T09:24:27;5.70;;;3.70;;
71692;SDS011;59524;43.000;-0.216;2022-07-06T09:26:55;4.03;;;3.60;;
71692;SDS011;59524;43.000;-0.216;2022-07-06T09:29:28;6.15;;;4.40;;
71692;SDS011;59524;43.000;-0.216;2022-07-06T09:31:55;3.63;;;3.33;;
71692;SDS011;59524;43.000;-0.216;2022-07-06T09:34:22;6.32;;;3.60;;
71692;SDS011;59524;43.000;-0.216;2022-07-06T09:36:49;6.43;;;4.00;;
71692;SDS011;59524;43.000;-0.216;2022-07-06T09:39:37;6.30;;;4.05;;
71692;SDS011;59524;43.000;-0.216;2022-07-06T09:42:03;5.05;;;4.07;;
71692;SDS011;59524;43.000;-0.216;2022-07-06T09:44:30;4.93;;;4.30;;
71692;SDS011;59524;43.000;-0.216;2022-07-06T09:46:59;4.78;;;3.97;;
71692;SDS011;59524;43.000;-0.216;2022-07-06T09:49:26;7.05;;;5.45;;
71692;SDS011;59524;43.000;-0.216;2022-07-06T09:51:55;5.05;;;4.35;;
71692;SDS011;59524;43.000;-0.216;2022-07-06T09:54:23;5.10;;;4.38;;
71692;SDS011;59524;43.000;-0.216;2022-07-06T09:56:50;4.70;;;4.30;;
71692;SDS011;59524;43.000;-0.216;2022-07-06T09:59:19;5.47;;;4.35;;
71692;SDS011;59524;43.000;-0.216;2022-07-06T10:01:47;5.35;;;3.65;;
71692;SDS011;59524;43.000;-0.216;2022-07-06T10:04:16;9.23;;;4.63;;
71692;SDS011;59524;43.000;-0.216;2022-07-06T10:06:44;7.60;;;4.40;;
71692;SDS011;59524;43.000;-0.216;2022-07-06T10:09:11;8.05;;;4.10;;
71692;SDS011;59524;43.000;-0.216;2022-07-06T10:11:38;5.45;;;3.70;;
71692;SDS011;59524;43.000;-0.216;2022-07-06T10:14:05;6.35;;;3.80;;
71692;SDS011;59524;43.000;-0.216;2022-07-06T10:16:34;5.57;;;4.70;;
71692;SDS011;59524;43.000;-0.216;2022-07-06T10:19:01;5.05;;;3.88;;
71692;SDS011;59524;43.000;-0.216;2022-07-06T10:21:28;4.13;;;3.78;;
71692;SDS011;59524;43.000;-0.216;2022-07-06T10:23:55;10.32;;;5.78;;
71692;SDS011;59524;43.000;-0.216;2022-07-06T10:26:25;7.97;;;6.45;;
71692;SDS011;59524;43.000;-0.216;2022-07-06T10:28:52;8.75;;;6.63;;
71692;SDS011;59524;43.000;-0.216;2022-07-06T10:31:19;7.25;;;6.18;;
71692;SDS011;59524;43.000;-0.216;2022-07-06T10:33:46;6.50;;;5.28;;
71692;SDS011;59524;43.000;-0.216;2022-07-06T10:36:13;5.18;;;4.68;;
71692;SDS011;59524;43.000;-0.216;2022-07-06T10:38:41;5.40;;;4.90;;
71692;SDS011;59524;43.000;-0.216;2022-07-06T10:41:12;5.75;;;5.22;;
71692;SDS011;59524;43.000;-0.216;2022-07-06T10:43:43;5.07;;;4.18;;
71692;SDS011;59524;43.000;-0.216;2022-07-06T10:46:10;6.25;;;4.50;;
71692;SDS011;59524;43.000;-0.216;2022-07-06T10:48:38;4.55;;;4.10;;
71692;SDS011;59524;43.000;-0.216;2022-07-06T10:51:06;7.78;;;5.45;;
71692;SDS011;59524;43.000;-0.216;2022-07-06T10:53:33;8.85;;;6.13;;
71692;SDS011;59524;43.000;-0.216;2022-07-06T10:56:02;6.15;;;4.63;;
71692;SDS011;59524;43.000;-0.216;2022-07-06T10:58:40;7.18;;;4.70;;
71692;SDS011;59524;43.000;-0.216;2022-07-06T11:01:08;5.30;;;4.05;;
71692;SDS011;59524;43.000;-0.216;2022-07-06T11:03:36;5.82;;;4.55;;
71692;SDS011;59524;43.000;-0.216;2022-07-06T11:06:08;8.68;;;4.55;;
71692;SDS011;59524;43.000;-0.216;2022-07-06T11:09:20;5.05;;;4.20;;
71692;SDS011;59524;43.000;-0.216;2022-07-06T11:11:26;5.00;;;3.97;;
71692;SDS011;59524;43.000;-0.216;2022-07-06T11:14:05;4.32;;;3.92;;
71692;SDS011;59524;43.000;-0.216;2022-07-06T11:16:33;6.78;;;3.72;;
71692;SDS011;59524;43.000;-0.216;2022-07-06T11:19:01;4.05;;;3.65;;
71692;SDS011;59524;43.000;-0.216;2022-07-06T11:21:33;5.30;;;4.05;;
71692;SDS011;59524;43.000;-0.216;2022-07-06T11:24:01;4.03;;;3.60;;
71692;SDS011;59524;43.000;-0.216;2022-07-06T11:26:28;4.60;;;3.60;;
71692;SDS011;59524;43.000;-0.216;2022-07-06T11:28:57;5.20;;;3.20;;
71692;SDS011;59524;43.000;-0.216;2022-07-06T11:31:25;4.43;;;3.30;;
71692;SDS011;59524;43.000;-0.216;2022-07-06T11:33:52;6.63;;;4.28;;
71692;SDS011;59524;43.000;-0.216;2022-07-06T11:36:19;5.45;;;3.75;;
71692;SDS011;59524;43.000;-0.216;2022-07-06T11:38:46;5.82;;;3.67;;
71692;SDS011;59524;43.000;-0.216;2022-07-06T11:41:14;6.25;;;4.13;;
71692;SDS011;59524;43.000;-0.216;2022-07-06T11:43:41;4.35;;;3.90;;
71692;SDS011;59524;43.000;-0.216;2022-07-06T11:46:50;5.32;;;4.32;;
71692;SDS011;59524;43.000;-0.216;2022-07-06T11:48:56;4.43;;;4.03;;
71692;SDS011;59524;43.000;-0.216;2022-07-06T11:51:24;5.55;;;4.28;;
71692;SDS011;59524;43.000;-0.216;2022-07-06T11:53:52;4.25;;;3.85;;
71692;SDS011;59524;43.000;-0.216;2022-07-06T11:56:20;5.88;;;4.32;;
71692;SDS011;59524;43.000;-0.216;2022-07-06T11:58:51;4.60;;;4.07;;
71692;SDS011;59524;43.000;-0.216;2022-07-06T12:01:19;4.85;;;4.03;;
71692;SDS011;59524;43.000;-0.216;2022-07-06T12:03:46;5.90;;;4.20;;
71692;SDS011;59524;43.000;-0.216;2022-07-06T12:06:16;5.35;;;3.78;;
71692;SDS011;59524;43.000;-0.216;2022-07-06T12:08:45;6.97;;;4.55;;
71692;SDS011;59524;43.000;-0.216;2022-07-06T12:11:16;7.00;;;4.50;;
71692;SDS011;59524;43.000;-0.216;2022-07-06T12:13:43;7.10;;;4.57;;
71692;SDS011;59524;43.000;-0.216;2022-07-06T12:16:11;6.72;;;4.75;;
71692;SDS011;59524;43.000;-0.216;2022-07-06T12:18:39;5.68;;;4.10;;
71692;SDS011;59524;43.000;-0.216;2022-07-06T12:21:07;6.47;;;4.50;;
71692;SDS011;59524;43.000;-0.216;2022-07-06T12:23:44;6.15;;;4.78;;
71692;SDS011;59524;43.000;-0.216;2022-07-06T12:26:12;5.97;;;4.25;;
71692;SDS011;59524;43.000;-0.216;2022-07-06T12:28:38;5.10;;;4.63;;
71692;SDS011;59524;43.000;-0.216;2022-07-06T12:31:05;5.88;;;4.40;;
71692;SDS011;59524;43.000;-0.216;2022-07-06T12:33:31;9.50;;;4.45;;
71692;SDS011;59524;43.000;-0.216;2022-07-06T12:36:19;4.65;;;3.78;;
71692;SDS011;59524;43.000;-0.216;2022-07-06T12:38:45;4.53;;;4.10;;
71692;SDS011;59524;43.000;-0.216;2022-07-06T12:41:33;4.97;;;4.45;;
71692;SDS011;59524;43.000;-0.216;2022-07-06T12:44:08;4.53;;;4.03;;
71692;SDS011;59524;43.000;-0.216;2022-07-06T12:46:36;5.20;;;4.20;;
71692;SDS011;59524;43.000;-0.216;2022-07-06T12:49:14;6.47;;;3.97;;
71692;SDS011;59524;43.000;-0.216;2022-07-06T12:54:17;3.72;;;3.42;;
71692;SDS011;59524;43.000;-0.216;2022-07-06T12:57:25;4.97;;;3.67;;
71692;SDS011;59524;43.000;-0.216;2022-07-06T12:59:31;5.90;;;4.07;;
71692;SDS011;59524;43.000;-0.216;2022-07-06T13:01:59;4.43;;;3.47;;
71692;SDS011;59524;43.000;-0.216;2022-07-06T13:04:27;5.03;;;3.72;;
71692;SDS011;59524;43.000;-0.216;2022-07-06T13:06:54;6.75;;;4.28;;
71692;SDS011;59524;43.000;-0.216;2022-07-06T13:09:21;6.50;;;5.00;;
71692;SDS011;59524;43.000;-0.216;2022-07-06T13:11:48;5.97;;;4.05;;
71692;SDS011;59524;43.000;-0.216;2022-07-06T13:14:16;6.30;;;3.67;;
71692;SDS011;59524;43.000;-0.216;2022-07-06T13:16:43;4.18;;;3.65;;
71692;SDS011;59524;43.000;-0.216;2022-07-06T13:19:10;6.32;;;3.92;;
71692;SDS011;59524;43.000;-0.216;2022-07-06T13:21:38;4.65;;;3.55;;
71692;SDS011;59524;43.000;-0.216;2022-07-06T13:24:06;5.30;;;3.97;;
71692;SDS011;59524;43.000;-0.216;2022-07-06T13:26:33;5.03;;;3.83;;
71692;SDS011;59524;43.000;-0.216;2022-07-06T13:29:04;4.50;;;3.88;;
71692;SDS011;59524;43.000;-0.216;2022-07-06T13:31:30;5.07;;;3.88;;
71692;SDS011;59524;43.000;-0.216;2022-07-06T13:33:57;7.03;;;3.58;;
71692;SDS011;59524;43.000;-0.216;2022-07-06T13:36:23;4.40;;;3.72;;
71692;SDS011;59524;43.000;-0.216;2022-07-06T13:38:50;6.82;;;3.95;;
71692;SDS011;59524;43.000;-0.216;2022-07-06T13:41:16;5.70;;;3.72;;
71692;SDS011;59524;43.000;-0.216;2022-07-06T13:43:43;4.35;;;3.30;;
71692;SDS011;59524;43.000;-0.216;2022-07-06T13:46:09;5.40;;;3.75;;
71692;SDS011;59524;43.000;-0.216;2022-07-06T13:48:37;4.38;;;3.97;;
71692;SDS011;59524;43.000;-0.216;2022-07-06T13:51:03;3.95;;;3.55;;
71692;SDS011;59524;43.000;-0.216;2022-07-06T13:53:30;5.32;;;4.15;;
71692;SDS011;59524;43.000;-0.216;2022-07-06T13:55:57;6.25;;;3.72;;
71692;SDS011;59524;43.000;-0.216;2022-07-06T13:58:24;4.43;;;4.00;;
71692;SDS011;59524;43.000;-0.216;2022-07-06T14:00:51;4.75;;;3.47;;
71692;SDS011;59524;43.000;-0.216;2022-07-06T14:03:17;4.35;;;3.95;;
71692;SDS011;59524;43.000;-0.216;2022-07-06T14:05:44;6.15;;;3.97;;
71692;SDS011;59524;43.000;-0.216;2022-07-06T14:08:11;6.35;;;5.30;;
71692;SDS011;59524;43.000;-0.216;2022-07-06T14:10:38;4.43;;;4.03;;
71692;SDS011;59524;43.000;-0.216;2022-07-06T14:13:04;6.68;;;4.00;;
71692;SDS011;59524;43.000;-0.216;2022-07-06T14:15:31;6.35;;;4.18;;
71692;SDS011;59524;43.000;-0.216;2022-07-06T14:17:59;7.32;;;4.40;;
71692;SDS011;59524;43.000;-0.216;2022-07-06T14:20:25;6.47;;;3.92;;
71692;SDS011;59524;43.000;-0.216;2022-07-06T14:22:52;4.55;;;3.92;;
71692;SDS011;59524;43.000;-0.216;2022-07-06T14:25:20;5.25;;;4.25;;
71692;SDS011;59524;43.000;-0.216;2022-07-06T14:27:46;4.57;;;4.05;;
71692;SDS011;59524;43.000;-0.216;2022-07-06T14:30:14;7.70;;;4.13;;
71692;SDS011;59524;43.000;-0.216;2022-07-06T14:32:41;4.70;;;4.25;;
71692;SDS011;59524;43.000;-0.216;2022-07-06T14:35:10;6.43;;;3.65;;
71692;SDS011;59524;43.000;-0.216;2022-07-06T14:37:36;4.82;;;4.20;;
71692;SDS011;59524;43.000;-0.216;2022-07-06T14:40:03;4.45;;;3.63;;
71692;SDS011;59524;43.000;-0.216;2022-07-06T14:42:30;4.20;;;3.80;;
71692;SDS011;59524;43.000;-0.216;2022-07-06T14:44:57;6.38;;;4.00;;
71692;SDS011;59524;43.000;-0.216;2022-07-06T14:47:24;4.32;;;3.92;;
71692;SDS011;59524;43.000;-0.216;2022-07-06T14:49:51;5.90;;;4.30;;
71692;SDS011;59524;43.000;-0.216;2022-07-06T14:52:18;5.00;;;4.60;;
71692;SDS011;59524;43.000;-0.216;2022-07-06T14:54:46;5.22;;;4.40;;